Time,TemperatureF,DewpointF,PressureIn,WindDirection,WindDirectionDegrees,WindSpeedMPH,WindSpeedGustMPH,Humidity,HourlyPrecipIn,Conditions,Clouds,dailyrainin,SoftwareType,DateUTC
2013-02-06 00:02:00,46.0,29.9,29.38,South,187,4.9,6.7,53,0.00,,---,0.00,VWS V14.01,2013-02-06 08:02:00,
2013-02-06 00:07:00,45.7,29.1,29.38,South,191,4.0,4.0,52,0.00,,---,0.00,VWS V14.01,2013-02-06 08:07:00,
2013-02-06 00:12:00,45.3,29.2,29.38,South,182,4.0,4.0,53,0.00,,---,0.00,VWS V14.01,2013-02-06 08:12:00,
2013-02-06 00:17:00,45.3,29.7,29.38,SSW,198,6.3,6.3,54,0.00,,---,0.00,VWS V14.01,2013-02-06 08:17:00,
2013-02-06 00:22:00,45.5,28.4,29.38,SSW,196,6.3,6.9,51,0.00,,---,0.00,VWS V14.01,2013-02-06 08:22:00,
2013-02-06 00:27:00,45.7,28.1,29.38,South,181,4.9,5.4,50,0.00,,---,0.00,VWS V14.01,2013-02-06 08:27:00,
2013-02-06 00:32:00,45.1,27.6,29.38,SSW,208,4.5,5.4,50,0.00,,---,0.00,VWS V14.01,2013-02-06 08:32:00,
2013-02-06 00:37:00,44.8,27.3,29.38,SSW,208,4.0,5.8,50,0.00,,---,0.00,VWS V14.01,2013-02-06 08:37:00,
2013-02-06 00:42:00,43.7,26.3,29.38,SSW,201,0.0,0.0,50,0.00,,---,0.00,VWS V14.01,2013-02-06 08:42:00,
2013-02-06 00:47:00,42.3,24.0,29.38,SSW,200,0.0,0.0,48,0.00,,---,0.00,VWS V14.01,2013-02-06 08:47:00,
2013-02-06 00:52:00,41.9,24.6,29.38,SSW,200,0.0,0.0,50,0.00,,---,0.00,VWS V14.01,2013-02-06 08:52:00,
2013-02-06 00:57:00,41.9,25.6,29.38,SW,220,3.1,3.6,52,0.00,,---,0.00,VWS V14.01,2013-02-06 08:57:00,
2013-02-06 01:02:00,40.3,23.6,29.38,NW,321,4.0,4.0,51,0.00,,---,0.00,VWS V14.01,2013-02-06 09:02:00,
2013-02-06 01:07:00,40.3,24.5,29.38,NW,321,0.0,0.0,53,0.00,,---,0.00,VWS V14.01,2013-02-06 09:07:00,
2013-02-06 01:12:00,40.8,27.6,29.38,NW,321,0.0,0.0,59,0.00,,---,0.00,VWS V14.01,2013-02-06 09:12:00,
2013-02-06 01:17:00,41.4,30.1,29.38,NW,321,0.0,0.0,64,0.00,,---,0.00,VWS V14.01,2013-02-06 09:17:00,
2013-02-06 01:22:00,41.4,31.2,29.38,East,90,3.1,4.0,67,0.00,,---,0.00,VWS V14.01,2013-02-06 09:22:00,
2013-02-06 01:27:00,41.0,31.3,29.38,East,90,0.0,0.0,68,0.00,,---,0.00,VWS V14.01,2013-02-06 09:27:00,
2013-02-06 01:32:00,40.8,31.1,29.38,East,95,3.6,4.0,68,0.00,,---,0.00,VWS V14.01,2013-02-06 09:32:00,
2013-02-06 01:37:00,41.0,31.6,29.38,East,99,4.0,4.0,69,0.00,,---,0.00,VWS V14.01,2013-02-06 09:37:00,
2013-02-06 01:42:00,40.5,30.8,29.38,East,101,3.6,3.6,68,0.00,,---,0.00,VWS V14.01,2013-02-06 09:42:00,
2013-02-06 01:47:00,40.5,30.4,29.38,East,96,4.0,4.9,67,0.00,,---,0.00,VWS V14.01,2013-02-06 09:47:00,
2013-02-06 01:52:00,40.5,30.4,29.38,ESE,111,3.1,4.0,67,0.00,,---,0.00,VWS V14.01,2013-02-06 09:52:00,
2013-02-06 01:57:00,40.6,30.2,29.38,ESE,111,2.7,3.6,66,0.00,,---,0.00,VWS V14.01,2013-02-06 09:57:00,
2013-02-06 02:02:00,40.5,30.0,29.38,ESE,111,3.6,3.6,66,0.00,,---,0.00,VWS V14.01,2013-02-06 10:02:00,
2013-02-06 02:07:00,40.3,29.1,29.38,ESE,111,0.0,0.0,64,0.00,,---,0.00,VWS V14.01,2013-02-06 10:07:00,
2013-02-06 02:12:00,39.7,28.6,29.38,ESE,111,0.0,0.0,64,0.00,,---,0.00,VWS V14.01,2013-02-06 10:12:00,
2013-02-06 02:17:00,39.2,27.7,29.38,NNW,332,0.0,0.0,63,0.00,,---,0.00,VWS V14.01,2013-02-06 10:17:00,
2013-02-06 02:22:00,38.5,26.6,29.38,NNW,332,0.0,0.0,62,0.00,,---,0.00,VWS V14.01,2013-02-06 10:22:00,
2013-02-06 02:27:00,36.9,23.9,29.38,NNW,340,0.0,0.0,59,0.00,,---,0.00,VWS V14.01,2013-02-06 10:27:00,
2013-02-06 02:32:00,37.0,24.5,29.41,North,351,0.0,0.0,60,0.00,,---,0.00,VWS V14.01,2013-02-06 10:32:00,
2013-02-06 02:37:00,37.4,25.2,29.41,North,351,0.0,0.0,61,0.00,,---,0.00,VWS V14.01,2013-02-06 10:37:00,
2013-02-06 02:42:00,37.9,26.9,29.41,North,351,0.0,0.0,64,0.00,,---,0.00,VWS V14.01,2013-02-06 10:42:00,
2013-02-06 02:47:00,37.8,26.7,29.41,North,351,0.0,0.0,64,0.00,,---,0.00,VWS V14.01,2013-02-06 10:47:00,
2013-02-06 02:52:00,38.5,28.9,29.41,ESE,105,3.6,4.0,68,0.00,,---,0.00,VWS V14.01,2013-02-06 10:52:00,
2013-02-06 02:57:00,38.5,29.2,29.41,ESE,104,3.1,3.6,69,0.00,,---,0.00,VWS V14.01,2013-02-06 10:57:00,
2013-02-06 03:02:00,37.4,27.8,29.38,ESE,104,2.7,3.1,68,0.00,,---,0.00,VWS V14.01,2013-02-06 11:02:00,
2013-02-06 03:07:00,36.7,26.8,29.38,ESE,104,0.0,2.7,67,0.00,,---,0.00,VWS V14.01,2013-02-06 11:07:00,
2013-02-06 03:13:00,36.9,26.9,29.38,ESE,104,0.0,0.0,67,0.00,,---,0.00,VWS V14.01,2013-02-06 11:13:00,
2013-02-06 03:18:00,37.2,28.0,29.38,ESE,104,3.1,3.1,69,0.00,,---,0.00,VWS V14.01,2013-02-06 11:18:00,
2013-02-06 03:23:00,37.9,29.4,29.38,ESE,108,3.1,4.5,71,0.00,,---,0.00,VWS V14.01,2013-02-06 11:23:00,
2013-02-06 03:28:00,38.1,29.9,29.38,SE,135,4.0,4.5,72,0.00,,---,0.00,VWS V14.01,2013-02-06 11:28:00,
2013-02-06 03:33:00,38.3,30.1,29.38,SE,135,0.0,0.0,72,0.00,,---,0.00,VWS V14.01,2013-02-06 11:33:00,
2013-02-06 03:38:00,37.4,28.9,29.38,SE,135,0.0,0.0,71,0.00,,---,0.00,VWS V14.01,2013-02-06 11:38:00,
2013-02-06 03:43:00,36.3,27.5,29.38,SE,135,0.0,0.0,70,0.00,,---,0.00,VWS V14.01,2013-02-06 11:43:00,
2013-02-06 03:49:00,36.3,27.1,29.38,SE,135,0.0,0.0,69,0.00,,---,0.00,VWS V14.01,2013-02-06 11:49:00,
2013-02-06 03:54:00,35.1,25.2,29.38,SE,135,0.0,0.0,67,0.00,,---,0.00,VWS V14.01,2013-02-06 11:54:00,
2013-02-06 03:59:00,35.1,25.2,29.38,SE,135,0.0,0.0,67,0.00,,---,0.00,VWS V14.01,2013-02-06 11:59:00,
2013-02-06 04:04:00,35.2,25.8,29.41,SE,135,0.0,0.0,68,0.00,,---,0.00,VWS V14.01,2013-02-06 12:04:00,
2013-02-06 04:09:00,36.0,27.5,29.41,SE,135,0.0,0.0,71,0.00,,---,0.00,VWS V14.01,2013-02-06 12:09:00,
2013-02-06 04:14:00,36.1,27.7,29.41,SE,135,0.0,0.0,71,0.00,,---,0.00,VWS V14.01,2013-02-06 12:14:00,
2013-02-06 04:19:00,36.7,28.2,29.41,SE,135,0.0,0.0,71,0.00,,---,0.00,VWS V14.01,2013-02-06 12:19:00,
2013-02-06 04:24:00,37.6,29.4,29.41,SE,134,0.0,0.0,72,0.00,,---,0.00,VWS V14.01,2013-02-06 12:24:00,
2013-02-06 04:30:00,37.9,30.1,29.41,SE,134,0.0,0.0,73,0.00,,---,0.00,VWS V14.01,2013-02-06 12:30:00,
2013-02-06 04:35:00,38.1,30.2,29.41,SE,134,0.0,0.0,73,0.00,,---,0.00,VWS V14.01,2013-02-06 12:35:00,
2013-02-06 04:40:00,38.1,30.2,29.41,SE,134,0.0,0.0,73,0.00,,---,0.00,VWS V14.01,2013-02-06 12:40:00,
2013-02-06 04:45:00,38.5,30.6,29.41,SE,134,0.0,0.0,73,0.00,,---,0.00,VWS V14.01,2013-02-06 12:45:00,
2013-02-06 04:50:00,38.7,30.8,29.41,SE,134,0.0,0.0,73,0.00,,---,0.00,VWS V14.01,2013-02-06 12:50:00,
2013-02-06 04:55:00,38.5,30.2,29.41,SE,134,0.0,0.0,72,0.00,,---,0.00,VWS V14.01,2013-02-06 12:55:00,
2013-02-06 05:01:00,38.7,30.4,29.41,SE,134,0.0,0.0,72,0.00,,---,0.00,VWS V14.01,2013-02-06 13:01:00,
2013-02-06 05:07:00,38.8,30.9,29.41,SE,134,0.0,0.0,73,0.00,,---,0.00,VWS V14.01,2013-02-06 13:07:00,
2013-02-06 05:12:00,39.2,31.3,29.41,SE,134,0.0,0.0,73,0.00,,---,0.00,VWS V14.01,2013-02-06 13:12:00,
2013-02-06 05:17:00,39.4,31.5,29.41,SE,134,0.0,0.0,73,0.00,,---,0.00,VWS V14.01,2013-02-06 13:17:00,
2013-02-06 05:22:00,39.4,31.5,29.41,SE,134,0.0,0.0,73,0.00,,---,0.00,VWS V14.01,2013-02-06 13:22:00,
2013-02-06 05:27:00,39.4,31.5,29.41,West,281,4.0,4.0,73,0.00,,---,0.00,VWS V14.01,2013-02-06 13:27:00,
2013-02-06 05:32:00,39.2,31.0,29.41,NNW,331,3.6,4.0,72,0.00,,---,0.00,VWS V14.01,2013-02-06 13:32:00,
2013-02-06 05:37:00,39.6,31.3,29.41,NNW,331,0.0,0.0,72,0.00,,---,0.00,VWS V14.01,2013-02-06 13:37:00,
2013-02-06 05:42:00,39.7,31.8,29.41,NNW,331,0.0,0.0,73,0.00,,---,0.00,VWS V14.01,2013-02-06 13:42:00,
2013-02-06 05:47:00,39.9,32.0,29.41,NNW,331,0.0,0.0,73,0.00,,---,0.00,VWS V14.01,2013-02-06 13:47:00,
2013-02-06 05:52:00,39.9,32.0,29.41,NNW,331,0.0,0.0,73,0.00,,---,0.00,VWS V14.01,2013-02-06 13:52:00,
2013-02-06 05:57:00,39.9,32.0,29.41,NNW,331,0.0,0.0,73,0.00,,---,0.00,VWS V14.01,2013-02-06 13:57:00,
2013-02-06 06:02:00,39.9,31.6,29.41,NNW,331,0.0,0.0,72,0.00,,---,0.00,VWS V14.01,2013-02-06 14:02:00,
2013-02-06 06:07:00,39.7,31.5,29.41,NNW,331,0.0,0.0,72,0.00,,---,0.00,VWS V14.01,2013-02-06 14:07:00,
2013-02-06 06:12:00,39.9,31.6,29.41,NNW,331,0.0,0.0,72,0.00,,---,0.00,VWS V14.01,2013-02-06 14:12:00,
2013-02-06 06:17:00,39.9,31.6,29.41,NNW,331,0.0,0.0,72,0.00,,---,0.00,VWS V14.01,2013-02-06 14:17:00,
2013-02-06 06:22:00,40.3,32.0,29.41,NNW,331,0.0,0.0,72,0.00,,---,0.00,VWS V14.01,2013-02-06 14:22:00,
2013-02-06 06:27:00,40.5,32.2,29.41,NNW,331,0.0,0.0,72,0.00,,---,0.00,VWS V14.01,2013-02-06 14:27:00,
2013-02-06 06:32:00,40.6,32.7,29.41,NNW,331,0.0,0.0,73,0.00,,---,0.00,VWS V14.01,2013-02-06 14:32:00,
2013-02-06 06:37:00,41.0,33.0,29.41,NNW,331,0.0,0.0,73,0.00,,---,0.00,VWS V14.01,2013-02-06 14:37:00,
2013-02-06 06:42:00,41.4,33.4,29.41,NNW,331,0.0,0.0,73,0.00,,---,0.00,VWS V14.01,2013-02-06 14:42:00,
2013-02-06 06:47:00,41.5,33.5,29.41,NNW,331,0.0,0.0,73,0.00,,---,0.00,VWS V14.01,2013-02-06 14:47:00,
2013-02-06 06:52:00,41.4,33.4,29.41,NNW,331,0.0,0.0,73,0.00,,---,0.00,VWS V14.01,2013-02-06 14:52:00,
2013-02-06 06:57:00,41.4,33.4,29.41,NNW,331,0.0,0.0,73,0.00,,---,0.00,VWS V14.01,2013-02-06 14:57:00,
2013-02-06 07:02:00,41.2,32.8,29.41,NNW,331,0.0,0.0,72,0.00,,---,0.00,VWS V14.01,2013-02-06 15:02:00,
2013-02-06 07:07:00,41.0,32.7,29.41,NNW,331,0.0,0.0,72,0.00,,---,0.00,VWS V14.01,2013-02-06 15:07:00,
2013-02-06 07:12:00,41.2,32.8,29.41,NNW,331,0.0,0.0,72,0.00,,---,0.00,VWS V14.01,2013-02-06 15:12:00,
2013-02-06 07:17:00,41.0,32.3,29.41,NNW,331,0.0,0.0,71,0.00,,---,0.00,VWS V14.01,2013-02-06 15:17:00,
2013-02-06 07:22:00,40.6,31.6,29.41,NNW,331,4.5,5.4,70,0.00,,---,0.00,VWS V14.01,2013-02-06 15:22:00,
2013-02-06 07:27:00,40.5,31.1,29.41,NNW,338,4.9,5.8,69,0.00,,---,0.00,VWS V14.01,2013-02-06 15:27:00,
2013-02-06 07:32:00,39.9,30.2,29.44,NNW,341,4.9,5.4,68,0.00,,---,0.00,VWS V14.01,2013-02-06 15:32:00,
2013-02-06 07:37:00,39.4,29.4,29.44,NNW,343,4.5,4.9,67,0.00,,---,0.00,VWS V14.01,2013-02-06 15:37:00,
2013-02-06 07:42:00,39.4,29.4,29.44,NNW,343,0.0,0.0,67,0.00,,---,0.00,VWS V14.01,2013-02-06 15:42:00,
2013-02-06 07:47:00,39.2,29.2,29.44,NNW,343,0.0,0.0,67,0.00,,---,0.00,VWS V14.01,2013-02-06 15:47:00,
2013-02-06 07:52:00,39.6,29.5,29.44,NNW,343,0.0,0.0,67,0.00,,---,0.00,VWS V14.01,2013-02-06 15:52:00,
2013-02-06 07:57:00,39.9,30.2,29.44,NNW,343,0.0,0.0,68,0.00,,---,0.00,VWS V14.01,2013-02-06 15:57:00,
2013-02-06 08:02:00,40.6,30.9,29.44,NNW,343,0.0,0.0,68,0.00,,---,0.00,VWS V14.01,2013-02-06 16:02:00,
2013-02-06 08:07:00,41.5,32.1,29.44,NNW,343,0.0,0.0,69,0.00,,---,0.00,VWS V14.01,2013-02-06 16:07:00,
2013-02-06 08:12:00,42.3,32.8,29.44,NNW,343,0.0,0.0,69,0.00,,---,0.00,VWS V14.01,2013-02-06 16:12:00,
2013-02-06 08:17:00,42.8,33.3,29.44,NNW,343,0.0,0.0,69,0.00,,---,0.00,VWS V14.01,2013-02-06 16:17:00,
2013-02-06 08:22:00,43.5,34.0,29.44,NNW,343,0.0,0.0,69,0.00,,---,0.00,VWS V14.01,2013-02-06 16:22:00,
2013-02-06 08:27:00,43.9,34.4,29.44,NNW,343,0.0,0.0,69,0.00,,---,0.00,VWS V14.01,2013-02-06 16:27:00,
2013-02-06 08:32:00,43.9,34.0,29.44,NNW,343,0.0,0.0,68,0.00,,---,0.00,VWS V14.01,2013-02-06 16:32:00,
2013-02-06 08:37:00,44.1,33.4,29.44,NNW,343,0.0,0.0,66,0.00,,---,0.00,VWS V14.01,2013-02-06 16:37:00,
2013-02-06 08:42:00,44.1,31.1,29.44,NNW,343,0.0,0.0,60,0.00,,---,0.00,VWS V14.01,2013-02-06 16:42:00,
2013-02-06 08:47:00,44.2,27.7,29.44,North,351,3.6,3.6,52,0.00,,---,0.00,VWS V14.01,2013-02-06 16:47:00,
2013-02-06 08:52:00,44.8,26.8,29.44,North,351,3.1,3.1,49,0.00,,---,0.00,VWS V14.01,2013-02-06 16:52:00,
2013-02-06 08:57:00,45.1,26.1,29.44,North,351,0.0,3.6,47,0.00,,---,0.00,VWS V14.01,2013-02-06 16:57:00,
2013-02-06 09:02:00,45.5,24.9,29.44,North,351,3.1,3.6,44,0.00,,---,0.00,VWS V14.01,2013-02-06 17:02:00,
2013-02-06 09:07:00,46.2,25.0,29.44,North,351,0.0,3.1,43,0.00,,---,0.00,VWS V14.01,2013-02-06 17:07:00,
2013-02-06 09:12:00,46.6,24.7,29.44,NW,320,2.7,3.6,42,0.00,,---,0.00,VWS V14.01,2013-02-06 17:12:00,
2013-02-06 09:18:00,47.3,23.6,29.44,NNW,329,0.0,0.0,39,0.00,,---,0.00,VWS V14.01,2013-02-06 17:18:00,
2013-02-06 09:23:00,48.0,23.6,29.44,NNW,334,0.0,0.0,38,0.00,,---,0.00,VWS V14.01,2013-02-06 17:23:00,
2013-02-06 09:28:00,48.4,24.0,29.44,NNW,334,0.0,0.0,38,0.00,,---,0.00,VWS V14.01,2013-02-06 17:28:00,
2013-02-06 09:33:00,48.9,23.8,29.44,NNW,334,0.0,0.0,37,0.00,,---,0.00,VWS V14.01,2013-02-06 17:33:00,
2013-02-06 09:38:00,49.3,23.5,29.44,WNW,284,3.1,3.1,36,0.00,,---,0.00,VWS V14.01,2013-02-06 17:38:00,
2013-02-06 09:43:00,50.0,23.4,29.44,NW,326,4.5,4.9,35,0.00,,---,0.00,VWS V14.01,2013-02-06 17:43:00,
2013-02-06 09:48:00,50.7,22.7,29.44,NNW,332,3.1,4.5,33,0.00,,---,0.00,VWS V14.01,2013-02-06 17:48:00,
2013-02-06 09:53:00,51.4,22.6,29.44,NW,315,4.0,4.5,32,0.00,,---,0.00,VWS V14.01,2013-02-06 17:53:00,
2013-02-06 09:58:00,52.0,21.5,29.44,NNW,335,0.0,0.0,30,0.00,,---,0.00,VWS V14.01,2013-02-06 17:58:00,
2013-02-06 10:03:00,52.5,21.2,29.44,West,274,0.0,4.0,29,0.00,,---,0.00,VWS V14.01,2013-02-06 18:03:00,
2013-02-06 10:08:00,54.0,22.5,29.44,WSW,254,0.0,4.0,29,0.00,,---,0.00,VWS V14.01,2013-02-06 18:08:00,
2013-02-06 10:13:00,54.9,21.5,29.44,WSW,254,0.0,0.0,27,0.00,,---,0.00,VWS V14.01,2013-02-06 18:13:00,
2013-02-06 10:18:00,55.4,22.0,29.41,NNW,337,0.0,3.6,27,0.00,,---,0.00,VWS V14.01,2013-02-06 18:18:00,
2013-02-06 10:23:00,55.6,22.1,29.41,West,268,0.0,4.0,27,0.00,,---,0.00,VWS V14.01,2013-02-06 18:23:00,
2013-02-06 10:28:00,55.8,21.4,29.41,West,278,0.0,3.6,26,0.00,,---,0.00,VWS V14.01,2013-02-06 18:28:00,
2013-02-06 10:33:00,55.8,21.4,29.41,SW,224,0.0,3.1,26,0.00,,---,0.00,VWS V14.01,2013-02-06 18:33:00,
2013-02-06 10:38:00,56.1,21.7,29.41,West,266,0.0,0.0,26,0.00,,---,0.00,VWS V14.01,2013-02-06 18:38:00,
2013-02-06 10:43:00,56.3,21.9,29.41,West,277,0.0,0.0,26,0.00,,---,0.00,VWS V14.01,2013-02-06 18:43:00,
2013-02-06 10:48:00,56.5,21.1,29.41,NW,317,4.5,4.5,25,0.00,,---,0.00,VWS V14.01,2013-02-06 18:48:00,
2013-02-06 10:53:00,56.8,21.4,29.41,West,276,4.0,4.0,25,0.00,,---,0.00,VWS V14.01,2013-02-06 18:53:00,
2013-02-06 10:58:00,57.6,22.0,29.41,WNW,295,3.1,3.1,25,0.00,,---,0.00,VWS V14.01,2013-02-06 18:58:00,
2013-02-06 11:03:00,57.9,22.3,29.41,SW,232,3.6,4.9,25,0.00,,---,0.00,VWS V14.01,2013-02-06 19:03:00,
2013-02-06 11:08:00,58.5,21.8,29.41,WSW,247,0.0,0.0,24,0.00,,---,0.00,VWS V14.01,2013-02-06 19:08:00,
2013-02-06 11:13:00,57.9,22.3,29.41,WNW,296,6.9,7.4,25,0.00,,---,0.00,VWS V14.01,2013-02-06 19:13:00,
2013-02-06 11:18:00,57.9,21.4,29.41,West,268,5.8,5.8,24,0.00,,---,0.00,VWS V14.01,2013-02-06 19:18:00,
2013-02-06 11:23:00,57.6,21.1,29.41,SW,233,0.0,3.6,24,0.00,,---,0.00,VWS V14.01,2013-02-06 19:23:00,
2013-02-06 11:28:00,57.7,21.2,29.41,North,0,4.9,5.8,24,0.00,,---,0.00,VWS V14.01,2013-02-06 19:28:00,
2013-02-06 11:33:00,56.5,20.1,29.41,NNE,20,4.5,4.9,24,0.00,,---,0.00,VWS V14.01,2013-02-06 19:33:00,
2013-02-06 11:38:00,56.7,20.3,29.41,East,89,3.1,4.0,24,0.00,,---,0.00,VWS V14.01,2013-02-06 19:38:00,
2013-02-06 11:43:00,56.7,20.3,29.41,SE,128,4.5,4.5,24,0.00,,---,0.00,VWS V14.01,2013-02-06 19:43:00,
2013-02-06 11:48:00,56.7,20.3,29.38,SE,129,4.5,5.8,24,0.00,,---,0.00,VWS V14.01,2013-02-06 19:48:00,
2013-02-06 11:53:00,56.8,20.5,29.38,NE,55,0.0,3.6,24,0.00,,---,0.00,VWS V14.01,2013-02-06 19:53:00,
2013-02-06 11:58:00,56.5,20.1,29.38,North,351,4.9,5.8,24,0.00,,---,0.00,VWS V14.01,2013-02-06 19:58:00,
2013-02-06 12:03:00,57.0,20.6,29.38,NW,307,3.6,4.5,24,0.00,,---,0.00,VWS V14.01,2013-02-06 20:03:00,
2013-02-06 12:08:00,57.4,18.9,29.38,NW,324,5.4,6.9,22,0.00,,---,0.00,VWS V14.01,2013-02-06 20:08:00,
2013-02-06 12:13:00,57.6,21.1,29.38,West,267,6.3,6.3,24,0.00,,---,0.00,VWS V14.01,2013-02-06 20:13:00,
2013-02-06 12:18:00,58.6,19.9,29.38,SW,231,0.0,4.0,22,0.00,,---,0.00,VWS V14.01,2013-02-06 20:18:00,
2013-02-06 12:23:00,58.5,52.7,29.38,NNW,329,4.5,5.8,81,0.00,,---,0.00,VWS V14.01,2013-02-06 20:23:00,
2013-02-06 12:28:00,58.5,19.8,29.38,ENE,73,3.1,3.1,22,0.00,,---,0.00,VWS V14.01,2013-02-06 20:28:00,
2013-02-06 12:33:00,58.5,19.8,29.38,NNW,344,4.5,5.8,22,0.00,,---,0.00,VWS V14.01,2013-02-06 20:33:00,
2013-02-06 12:38:00,58.5,19.8,29.38,NE,45,3.6,3.6,22,0.00,,---,0.00,VWS V14.01,2013-02-06 20:38:00,
2013-02-06 12:43:00,58.1,19.5,29.38,NE,39,4.5,4.9,22,0.00,,---,0.00,VWS V14.01,2013-02-06 20:43:00,
2013-02-06 12:48:00,58.8,20.1,29.38,NW,313,4.5,4.9,22,0.00,,---,0.00,VWS V14.01,2013-02-06 20:48:00,
2013-02-06 12:53:00,59.7,20.8,29.38,WNW,291,0.0,0.0,22,0.00,,---,0.00,VWS V14.01,2013-02-06 20:53:00,
2013-02-06 12:58:00,59.7,20.8,29.38,NE,35,3.6,4.5,22,0.00,,---,0.00,VWS V14.01,2013-02-06 20:58:00,
2013-02-06 13:03:00,59.7,20.8,29.38,SE,139,5.4,5.8,22,0.00,,---,0.00,VWS V14.01,2013-02-06 21:03:00,
2013-02-06 13:08:00,59.2,20.4,29.38,South,171,0.0,2.7,22,0.00,,---,0.00,VWS V14.01,2013-02-06 21:08:00,
2013-02-06 13:13:00,60.6,18.2,29.38,South,171,0.0,0.0,19,0.00,,---,0.00,VWS V14.01,2013-02-06 21:13:00,
2013-02-06 13:18:00,61.2,20.9,29.35,WNW,300,6.7,7.4,21,0.00,,---,0.00,VWS V14.01,2013-02-06 21:18:00,
2013-02-06 13:23:00,61.3,18.8,29.35,WSW,240,4.0,4.0,19,0.00,,---,0.00,VWS V14.01,2013-02-06 21:23:00,
2013-02-06 13:28:00,60.8,18.3,29.35,WSW,243,3.6,4.0,19,0.00,,---,0.00,VWS V14.01,2013-02-06 21:28:00,
2013-02-06 13:33:00,61.7,19.0,29.35,WSW,246,0.0,0.0,19,0.00,,---,0.00,VWS V14.01,2013-02-06 21:33:00,
2013-02-06 13:38:00,60.8,18.3,29.35,WNW,301,6.3,6.7,19,0.00,,---,0.00,VWS V14.01,2013-02-06 21:38:00,
2013-02-06 13:43:00,59.7,17.4,29.35,North,351,3.1,4.9,19,0.00,,---,0.00,VWS V14.01,2013-02-06 21:43:00,
2013-02-06 13:48:00,60.4,18.0,29.35,North,3,2.7,4.0,19,0.00,,---,0.00,VWS V14.01,2013-02-06 21:48:00,
2013-02-06 13:53:00,60.4,18.0,29.35,NNW,327,5.4,6.7,19,0.00,,---,77.83,VWS V14.01,2013-02-06 21:53:00,
2013-02-06 13:58:00,60.8,18.3,29.35,WSW,243,4.5,5.4,19,0.00,,---,77.83,VWS V14.01,2013-02-06 21:58:00,
2013-02-06 14:03:00,61.3,18.8,29.35,West,276,7.4,8.7,19,0.00,,---,77.83,VWS V14.01,2013-02-06 22:03:00,
2013-02-06 14:08:00,60.6,18.2,29.35,WNW,293,4.9,6.7,19,0.00,,---,77.83,VWS V14.01,2013-02-06 22:08:00,
2013-02-06 14:13:00,60.1,17.7,29.35,WNW,287,3.1,5.4,19,0.00,,---,77.83,VWS V14.01,2013-02-06 22:13:00,
2013-02-06 14:18:00,60.4,18.0,29.35,NW,304,0.0,0.0,19,0.00,,---,77.83,VWS V14.01,2013-02-06 22:18:00,
2013-02-06 14:23:00,59.7,17.4,29.35,NE,43,4.5,4.9,19,0.00,,---,77.83,VWS V14.01,2013-02-06 22:23:00,
2013-02-06 14:28:00,59.2,17.0,29.35,WNW,303,0.0,4.0,19,0.00,,---,77.83,VWS V14.01,2013-02-06 22:28:00,
2013-02-06 14:33:00,59.7,17.4,29.32,East,93,4.5,4.5,19,0.00,,---,77.83,VWS V14.01,2013-02-06 22:33:00,
2013-02-06 14:38:00,60.1,17.7,29.32,East,93,3.1,4.9,19,0.00,,---,77.83,VWS V14.01,2013-02-06 22:38:00,
2013-02-06 14:43:00,59.7,17.4,29.32,ESE,105,4.0,4.5,19,0.00,,---,77.83,VWS V14.01,2013-02-06 22:43:00,
2013-02-06 14:48:00,59.4,17.1,29.32,SE,125,0.0,6.3,19,0.00,,---,77.83,VWS V14.01,2013-02-06 22:48:00,
2013-02-06 14:53:00,59.4,17.1,29.32,ENE,61,5.8,5.8,19,0.00,,---,77.83,VWS V14.01,2013-02-06 22:53:00,
2013-02-06 14:58:00,59.4,17.1,29.32,NE,46,3.1,4.5,19,0.00,,---,77.83,VWS V14.01,2013-02-06 22:58:00,
2013-02-06 15:03:00,59.7,17.4,29.32,North,356,3.6,4.9,19,0.00,,---,77.83,VWS V14.01,2013-02-06 23:03:00,
2013-02-06 15:08:00,60.3,17.9,29.32,NW,305,5.4,6.3,19,0.00,,---,77.83,VWS V14.01,2013-02-06 23:08:00,
2013-02-06 15:13:00,60.6,18.2,29.32,WNW,286,7.8,7.8,19,0.00,,---,77.83,VWS V14.01,2013-02-06 23:13:00,
2013-02-06 15:18:00,60.8,18.3,29.35,SW,230,5.8,5.8,19,0.00,,---,77.83,VWS V14.01,2013-02-06 23:18:00,
2013-02-06 15:23:00,61.2,18.6,29.35,WSW,248,4.9,8.3,19,0.00,,---,77.83,VWS V14.01,2013-02-06 23:23:00,
2013-02-06 15:28:00,61.2,18.6,29.35,West,273,4.5,5.8,19,0.00,,---,77.83,VWS V14.01,2013-02-06 23:28:00,
2013-02-06 15:34:00,61.5,18.9,29.32,WSW,240,4.0,4.9,19,0.00,,---,77.83,VWS V14.01,2013-02-06 23:34:00,
2013-02-06 15:39:00,61.3,18.8,29.32,WNW,297,8.7,9.2,19,0.00,,---,77.83,VWS V14.01,2013-02-06 23:39:00,
2013-02-06 15:44:00,60.8,18.3,29.32,West,281,8.3,8.7,19,0.00,,---,77.83,VWS V14.01,2013-02-06 23:44:00,
2013-02-06 15:50:00,60.4,18.0,29.35,West,259,5.4,9.2,19,0.00,,---,77.83,VWS V14.01,2013-02-06 23:50:00,
2013-02-06 15:55:00,60.4,18.0,29.35,WNW,284,9.2,10.5,19,0.00,,---,77.83,VWS V14.01,2013-02-06 23:55:00,
2013-02-06 16:00:00,60.1,17.7,29.35,WNW,293,4.5,4.9,19,0.00,,---,77.83,VWS V14.01,2013-02-07 00:00:00,
2013-02-06 16:05:00,59.9,17.6,29.35,WNW,287,7.8,10.5,19,0.00,,---,77.83,VWS V14.01,2013-02-07 00:05:00,
2013-02-06 16:10:00,58.8,16.7,29.35,WSW,248,12.1,13.9,19,0.00,,---,77.83,VWS V14.01,2013-02-07 00:10:00,
2013-02-06 16:15:00,58.1,16.1,29.35,West,267,9.6,11.6,19,0.00,,---,77.83,VWS V14.01,2013-02-07 00:15:00,
2013-02-06 16:20:00,57.9,15.9,29.35,West,273,9.2,11.0,19,0.00,,---,77.83,VWS V14.01,2013-02-07 00:20:00,
2013-02-06 16:25:00,57.4,15.5,29.35,WSW,253,10.5,12.5,19,0.00,,---,77.83,VWS V14.01,2013-02-07 00:25:00,
2013-02-06 16:30:00,57.0,15.2,29.35,West,270,9.2,13.0,19,0.00,,---,77.83,VWS V14.01,2013-02-07 00:30:00,
2013-02-06 16:35:00,56.7,14.9,29.35,West,266,10.5,12.1,19,0.00,,---,77.83,VWS V14.01,2013-02-07 00:35:00,
2013-02-06 16:41:00,56.3,15.8,29.35,WSW,257,6.9,10.5,20,0.00,,---,77.83,VWS V14.01,2013-02-07 00:41:00,
2013-02-06 16:46:00,55.9,15.5,29.35,West,267,12.5,13.0,20,0.00,,---,77.83,VWS V14.01,2013-02-07 00:46:00,
2013-02-06 16:51:00,55.6,15.2,29.35,WNW,300,10.1,11.0,20,0.00,,---,77.83,VWS V14.01,2013-02-07 00:51:00,
2013-02-06 16:56:00,55.2,14.9,29.35,West,269,9.6,10.5,20,0.00,,---,77.83,VWS V14.01,2013-02-07 00:56:00,
2013-02-06 17:01:00,54.7,14.4,29.35,West,262,12.1,12.1,20,0.00,,---,77.83,VWS V14.01,2013-02-07 01:01:00,
2013-02-06 17:06:00,54.3,14.1,29.35,WNW,286,6.9,11.0,20,0.00,,---,77.83,VWS V14.01,2013-02-07 01:06:00,
2013-02-06 17:11:00,53.8,13.7,29.35,West,276,6.9,11.2,20,0.00,,---,77.83,VWS V14.01,2013-02-07 01:11:00,
2013-02-06 17:16:00,53.2,13.2,29.35,WNW,294,6.9,7.8,20,0.00,,---,77.83,VWS V14.01,2013-02-07 01:16:00,
2013-02-06 17:21:00,52.9,16.1,29.35,WNW,298,5.4,6.9,23,0.00,,---,77.83,VWS V14.01,2013-02-07 01:21:00,
2013-02-06 17:26:00,52.2,15.5,29.35,WNW,300,4.9,5.8,23,0.00,,---,77.83,VWS V14.01,2013-02-07 01:26:00,
2013-02-06 17:31:00,51.6,15.1,29.35,WNW,292,5.4,6.3,23,0.00,,---,77.83,VWS V14.01,2013-02-07 01:31:00,
2013-02-06 17:36:00,51.1,14.6,29.35,NW,313,3.6,6.7,23,0.00,,---,77.83,VWS V14.01,2013-02-07 01:36:00,
2013-02-06 17:41:00,50.5,17.0,29.35,NW,322,4.0,4.5,26,0.00,,---,77.83,VWS V14.01,2013-02-07 01:41:00,
2013-02-06 17:46:00,49.5,16.0,29.35,NW,322,0.0,0.0,26,0.00,,---,77.83,VWS V14.01,2013-02-07 01:46:00,
2013-02-06 17:51:00,48.4,16.8,29.35,NW,322,0.0,0.0,28,0.00,,---,77.83,VWS V14.01,2013-02-07 01:51:00,
2013-02-06 17:56:00,47.7,17.8,29.35,NW,322,0.0,0.0,30,0.00,,---,77.83,VWS V14.01,2013-02-07 01:56:00,
2013-02-06 18:01:00,47.8,22.2,29.35,NW,322,0.0,2.7,36,0.00,,---,77.83,VWS V14.01,2013-02-07 02:01:00,
2013-02-06 18:06:00,48.2,23.2,29.35,SW,222,0.0,4.9,37,0.00,,---,77.83,VWS V14.01,2013-02-07 02:06:00,
2013-02-06 18:11:00,48.7,23.6,29.35,SW,214,2.7,3.1,37,0.00,,---,77.83,VWS V14.01,2013-02-07 02:11:00,
2013-02-06 18:16:00,50.0,24.8,29.38,SSW,199,6.3,6.7,37,0.00,,---,77.83,VWS V14.01,2013-02-07 02:16:00,
2013-02-06 18:21:00,50.2,24.3,29.38,SSW,204,4.9,5.4,36,0.00,,---,77.83,VWS V14.01,2013-02-07 02:21:00,
2013-02-06 18:26:00,50.2,24.3,29.38,SSW,196,4.9,5.8,36,0.00,,---,77.83,VWS V14.01,2013-02-07 02:26:00,
2013-02-06 18:31:00,49.5,23.0,29.38,South,172,3.1,5.4,35,0.00,,---,77.83,VWS V14.01,2013-02-07 02:31:00,
2013-02-06 18:36:00,49.3,23.5,29.38,SSW,198,4.0,6.3,36,0.00,,---,77.83,VWS V14.01,2013-02-07 02:36:00,
2013-02-06 18:41:00,49.5,23.6,29.38,SSW,209,6.9,7.8,36,0.00,,---,77.83,VWS V14.01,2013-02-07 02:41:00,
2013-02-06 18:46:00,49.3,23.5,29.38,SSW,213,5.8,7.4,36,0.00,,---,77.83,VWS V14.01,2013-02-07 02:46:00,
2013-02-06 18:51:00,49.3,23.5,29.38,SSW,209,5.8,7.8,36,0.00,,---,77.83,VWS V14.01,2013-02-07 02:51:00,
2013-02-06 18:56:00,48.7,23.6,29.38,SW,216,5.4,5.8,37,0.00,,---,77.83,VWS V14.01,2013-02-07 02:56:00,
2013-02-06 19:01:00,48.7,24.3,29.38,SSW,209,5.4,8.3,38,0.00,,---,77.83,VWS V14.01,2013-02-07 03:01:00,
2013-02-06 19:06:00,48.2,23.8,29.38,SSW,210,4.9,6.3,38,0.00,,---,77.83,VWS V14.01,2013-02-07 03:06:00,
2013-02-06 19:11:00,48.0,24.3,29.38,SSW,211,6.7,6.7,39,0.00,,---,77.83,VWS V14.01,2013-02-07 03:11:00,
2013-02-06 19:16:00,47.7,24.5,29.38,SW,220,4.9,6.7,40,0.00,,---,77.83,VWS V14.01,2013-02-07 03:16:00,
2013-02-06 19:21:00,47.8,25.3,29.38,SSW,210,5.4,8.3,41,0.00,,---,77.83,VWS V14.01,2013-02-07 03:21:00,
2013-02-06 19:26:00,47.7,25.1,29.38,SW,220,4.5,5.8,41,0.00,,---,77.83,VWS V14.01,2013-02-07 03:26:00,
2013-02-06 19:31:00,47.1,25.2,29.38,WSW,242,4.5,5.4,42,0.00,,---,77.83,VWS V14.01,2013-02-07 03:31:00,
2013-02-06 19:36:00,46.6,25.3,29.38,SW,235,2.7,3.1,43,0.00,,---,77.83,VWS V14.01,2013-02-07 03:36:00,
2013-02-06 19:41:00,46.9,27.8,29.38,SSW,204,5.4,7.8,47,0.00,,---,77.83,VWS V14.01,2013-02-07 03:41:00,
2013-02-06 19:46:00,47.1,27.4,29.38,SW,221,7.4,7.8,46,0.00,,---,77.83,VWS V14.01,2013-02-07 03:46:00,
2013-02-06 19:51:00,47.1,27.4,29.38,SW,225,7.4,9.2,46,0.00,,---,77.83,VWS V14.01,2013-02-07 03:51:00,
2013-02-06 19:56:00,47.3,28.1,29.38,SW,225,6.3,9.2,47,0.00,,---,77.83,VWS V14.01,2013-02-07 03:56:00,
2013-02-06 20:01:00,46.9,28.3,29.41,SW,228,9.6,9.6,48,0.00,,---,77.83,VWS V14.01,2013-02-07 04:01:00,
2013-02-06 20:06:00,46.9,28.3,29.41,SW,226,7.4,8.3,48,0.00,,---,77.83,VWS V14.01,2013-02-07 04:06:00,
2013-02-06 20:12:00,46.9,28.3,29.41,SW,218,6.3,6.7,48,0.00,,---,77.83,VWS V14.01,2013-02-07 04:12:00,
2013-02-06 20:17:00,46.8,28.1,29.41,SW,229,6.9,7.4,48,0.00,,---,77.83,VWS V14.01,2013-02-07 04:17:00,
2013-02-06 20:22:00,46.8,28.6,29.41,SSW,212,6.3,6.3,49,0.00,,---,77.83,VWS V14.01,2013-02-07 04:22:00,
2013-02-06 20:27:00,47.1,29.0,29.41,SSW,203,7.8,10.1,49,0.00,,---,77.83,VWS V14.01,2013-02-07 04:27:00,
2013-02-06 20:32:00,46.9,28.8,29.41,SW,222,5.8,6.9,49,0.00,,---,77.83,VWS V14.01,2013-02-07 04:32:00,
2013-02-06 20:37:00,46.8,28.6,29.41,SW,229,7.4,8.7,49,0.00,,---,77.83,VWS V14.01,2013-02-07 04:37:00,
2013-02-06 20:42:00,47.1,28.5,29.41,SSW,205,8.7,10.5,48,0.00,,---,77.83,VWS V14.01,2013-02-07 04:42:00,
2013-02-06 20:47:00,47.3,28.1,29.41,SSW,201,7.8,8.3,47,0.00,,---,77.83,VWS V14.01,2013-02-07 04:47:00,
2013-02-06 20:52:00,46.9,27.8,29.41,South,184,7.8,7.8,47,0.00,,---,77.83,VWS V14.01,2013-02-07 04:52:00,
2013-02-06 20:57:00,46.8,27.6,29.41,SSW,211,8.3,8.3,47,0.00,,---,77.83,VWS V14.01,2013-02-07 04:57:00,
2013-02-06 21:01:00,46.8,27.6,29.41,SSW,206,6.7,8.3,47,0.00,,---,77.83,VWS V14.01,2013-02-07 05:01:00,
2013-02-06 21:02:00,46.8,27.6,29.41,South,191,9.2,9.6,47,0.00,,---,77.83,VWS V14.01,2013-02-07 05:02:00,
2013-02-06 21:07:00,46.8,26.0,29.41,SSE,167,8.3,10.5,44,0.00,,---,77.83,VWS V14.01,2013-02-07 05:07:00,
2013-02-06 21:10:00,46.9,26.2,29.41,SSW,206,6.9,10.5,44,0.00,,---,77.83,VWS V14.01,2013-02-07 05:10:00,
2013-02-06 21:11:00,46.8,26.0,29.41,South,187,5.8,8.3,44,0.00,,---,77.83,VWS V14.01,2013-02-07 05:11:00,
2013-02-06 21:16:00,46.6,26.4,29.41,SSW,194,6.9,7.8,45,0.00,,---,77.83,VWS V14.01,2013-02-07 05:16:00,
2013-02-06 21:21:00,46.4,27.3,29.41,SSW,196,6.9,7.8,47,0.00,,---,77.83,VWS V14.01,2013-02-07 05:21:00,
2013-02-06 21:26:00,46.2,27.1,29.41,South,174,6.3,6.9,47,0.00,,---,77.83,VWS V14.01,2013-02-07 05:26:00,
2013-02-06 21:32:00,46.0,27.0,29.41,South,185,8.7,8.7,47,0.00,,---,77.83,VWS V14.01,2013-02-07 05:32:00,
2013-02-06 21:37:00,45.9,27.3,29.41,SSW,206,9.6,10.5,48,0.00,,---,77.83,VWS V14.01,2013-02-07 05:37:00,
2013-02-06 21:42:00,45.9,27.8,29.41,SSW,197,10.1,10.1,49,0.00,,---,77.83,VWS V14.01,2013-02-07 05:42:00,
2013-02-06 21:48:00,46.0,27.5,29.41,SSW,206,9.6,10.1,48,0.00,,---,77.83,VWS V14.01,2013-02-07 05:48:00,
2013-02-06 21:53:00,46.0,27.0,29.41,SSW,198,8.7,11.0,47,0.00,,---,77.83,VWS V14.01,2013-02-07 05:53:00,
2013-02-06 21:58:00,46.0,26.4,29.41,SW,214,9.6,12.1,46,0.00,,---,77.83,VWS V14.01,2013-02-07 05:58:00,
2013-02-06 22:03:00,45.9,26.3,29.41,SSW,202,11.2,12.1,46,0.00,,---,77.83,VWS V14.01,2013-02-07 06:03:00,
2013-02-06 22:08:00,45.5,25.9,29.41,SSW,213,8.3,10.1,46,0.00,,---,77.83,VWS V14.01,2013-02-07 06:08:00,
2013-02-06 22:13:00,45.5,26.5,29.41,SW,217,6.7,9.6,47,0.00,,---,77.83,VWS V14.01,2013-02-07 06:13:00,
2013-02-06 22:18:00,45.5,24.9,29.41,SSW,206,7.8,9.2,44,0.00,,---,77.83,VWS V14.01,2013-02-07 06:18:00,
2013-02-06 22:23:00,45.7,24.5,29.41,SSW,213,7.8,7.8,43,0.00,,---,77.83,VWS V14.01,2013-02-07 06:23:00,
2013-02-06 22:28:00,45.3,24.7,29.41,South,185,4.5,6.3,44,0.00,,---,77.83,VWS V14.01,2013-02-07 06:28:00,
2013-02-06 22:33:00,45.1,24.5,29.41,South,184,4.5,4.5,44,0.00,,---,77.83,VWS V14.01,2013-02-07 06:33:00,
2013-02-06 22:38:00,45.1,25.1,29.41,South,191,6.3,6.9,45,0.00,,---,77.83,VWS V14.01,2013-02-07 06:38:00,
2013-02-06 22:43:00,45.5,24.9,29.41,SSW,202,6.3,7.4,44,0.00,,---,77.83,VWS V14.01,2013-02-07 06:43:00,
2013-02-06 22:48:00,45.5,24.3,29.41,SSW,195,5.8,8.7,43,0.00,,---,77.83,VWS V14.01,2013-02-07 06:48:00,
2013-02-06 22:53:00,45.5,23.8,29.41,SSW,211,8.7,9.2,42,0.00,,---,77.83,VWS V14.01,2013-02-07 06:53:00,
2013-02-06 22:58:00,45.5,23.8,29.41,SSW,198,8.3,9.6,42,0.00,,---,77.83,VWS V14.01,2013-02-07 06:58:00,
2013-02-06 23:03:00,45.3,23.6,29.41,SSW,199,8.3,9.2,42,0.00,,---,77.83,VWS V14.01,2013-02-07 07:03:00,
2013-02-06 23:08:00,45.5,23.8,29.41,SSW,211,8.3,8.7,42,0.00,,---,77.83,VWS V14.01,2013-02-07 07:08:00,
2013-02-06 23:14:00,45.3,24.2,29.41,SSW,206,7.8,10.5,43,0.00,,---,77.83,VWS V14.01,2013-02-07 07:14:00,
2013-02-06 23:19:00,45.0,23.8,29.41,South,190,4.5,5.8,43,0.00,,---,77.83,VWS V14.01,2013-02-07 07:19:00,
2013-02-06 23:24:00,44.8,23.7,29.41,South,179,4.9,5.4,43,0.00,,---,77.83,VWS V14.01,2013-02-07 07:24:00,
2013-02-06 23:29:00,44.6,24.0,29.41,South,181,4.9,6.3,44,0.00,,---,77.83,VWS V14.01,2013-02-07 07:29:00,
2013-02-06 23:34:00,43.9,23.9,29.41,SSE,164,4.0,4.9,45,0.00,,---,77.83,VWS V14.01,2013-02-07 07:34:00,
2013-02-06 23:40:00,42.4,22.1,29.41,ESE,113,4.0,4.9,44,0.00,,---,77.83,VWS V14.01,2013-02-07 07:40:00,
2013-02-06 23:45:00,42.3,24.0,29.41,ESE,113,4.0,6.3,48,0.00,,---,77.83,VWS V14.01,2013-02-07 07:45:00,
2013-02-06 23:50:00,42.6,24.3,29.44,SE,128,5.8,5.8,48,0.00,,---,77.83,VWS V14.01,2013-02-07 07:50:00,
2013-02-06 23:55:00,42.6,23.3,29.44,SE,127,5.4,5.8,46,0.00,,---,77.83,VWS V14.01,2013-02-07 07:55:00,